CYPY

Details ICAO CYPY (YPY)
Name FORT CHIPEWYAN
Region Canada
Timezone America/Edmonton (UTC-7.0)
Plans Departing 10
Arriving 6
Stats Elevation 761 ft / 232 m (AMSL)
Location 58.767083° -111.117220°
Runways 1
Magnetic Variation 14.023° E
Sunrise 2017-12-17 16:14:08 UTC / 2017-12-17 09:14:08 Local
Sunset 2017-12-17 22:30:05 UTC / 2017-12-17 15:30:05 Local
Advertisement - Login to hide

Runways

ID Width Length Bearing (true) Bearing (mag) Surface Threshold Offset Overrun Length
03 150 ft / 46 m 5,001 ft / 1,524 m 51.06° 37.04° Asphalt 0 ft / 0 m 0 ft / 0 m
21 150 ft / 46 m 5,001 ft / 1,524 m 231.08° 217.06° Asphalt 0 ft / 0 m 0 ft / 0 m

Map

Weather


0- 5 10 15 20 25 30 35+ Temperature / ° C

Clouds and Precipitation
Forecast for 2017-12-17 12:00 UTC. Updated an hour ago

Ground ~20,000 ft ~40,000 ft Winds

METAR

CYPY 171200Z AUTO VRB02KT 9SM BKN160 OVC180 M09/M09 A2923 RMK SLP918

TAF

Not found

Frequencies

Unicom 123.20 MHz CTAF
Warning: Do not use this data for real-world aviation or navigation. No guarantee of current accuracy is given.